Time;durP1;ratioP1;P1;durP2;ratioP2;P2;SDS_P1;SDS_P2;PMS_P1;PMS_P2;Temp;Humidity;BMP_temperature;BMP_pressure;BME280_temperature;BME280_humidity;BME280_pressure;Samples;Min_cycle;Max_cycle;Signal;HPM_P1;HPM_P2
2022/07/02 00:00:43;;;;;;;12.48;6.22;;;;;;;25.36;71.06;99840.38;5125888;28;20035;-74
2022/07/02 00:03:10;;;;;;;8.45;5.53;;;;;;;25.43;70.61;99851.03;5126831;28;20027;-74
2022/07/02 00:05:44;;;;;;;9.43;6.07;;;;;;;25.28;70.02;99821.88;5128842;28;20043;-74
2022/07/02 00:08:11;;;;;;;8.88;5.55;;;;;;;25.45;70.22;99848.88;5127529;28;20259;-74
2022/07/02 00:10:37;;;;;;;7.70;5.93;;;;;;;25.31;70.49;99842.22;5126138;28;20056;-74
2022/07/02 00:13:02;;;;;;;11.35;6.03;;;;;;;25.44;70.41;99852.66;5123347;28;20359;-74
2022/07/02 00:15:28;;;;;;;8.82;6.03;;;;;;;25.30;70.90;99856.84;5124566;28;20299;-74
2022/07/02 00:17:54;;;;;;;8.80;5.90;;;;;;;25.24;71.29;99861.41;5125130;28;20026;-74
2022/07/02 00:20:20;;;;;;;8.23;6.10;;;;;;;25.27;70.67;99858.19;5106588;28;20216;-74
2022/07/02 00:22:47;;;;;;;11.13;6.53;;;;;;;25.23;70.53;99854.34;5126914;28;20033;-74
2022/07/02 00:25:13;;;;;;;12.18;6.32;;;;;;;25.29;70.64;99847.91;5123371;27;20039;-74
2022/07/02 00:27:42;;;;;;;10.63;6.68;;;;;;;25.33;70.90;99856.34;5132447;28;20064;-74
2022/07/02 00:30:08;;;;;;;8.68;6.05;;;;;;;25.37;70.33;99843.91;5124860;28;20221;-74
2022/07/02 00:32:35;;;;;;;9.57;6.72;;;;;;;25.44;69.96;99844.53;5124435;28;20027;-74
2022/07/02 00:35:09;;;;;;;11.98;6.00;;;;;;;25.48;69.77;99858.38;5125367;28;20028;-74
2022/07/02 00:37:37;;;;;;;10.73;6.82;;;;;;;25.43;69.95;99861.88;5124353;27;20077;-74
2022/07/02 00:40:04;;;;;;;12.43;6.20;;;;;;;25.45;70.06;99855.13;5132978;27;20043;-74
2022/07/02 00:42:31;;;;;;;8.50;6.38;;;;;;;25.47;69.65;99857.56;5129910;27;20038;-74
2022/07/02 00:44:57;;;;;;;13.57;6.82;;;;;;;25.50;69.81;99861.66;5136960;27;20112;-74
2022/07/02 00:47:25;;;;;;;7.90;6.35;;;;;;;25.41;69.62;99859.41;5130128;27;20055;-74
2022/07/02 00:49:51;;;;;;;12.02;6.30;;;;;;;25.27;70.20;99854.66;5139525;27;20038;-74
2022/07/02 00:52:16;;;;;;;9.50;5.93;;;;;;;25.24;70.82;99857.88;5128103;27;20043;-74
2022/07/02 00:54:42;;;;;;;11.10;6.15;;;;;;;25.16;70.96;99861.03;5130421;27;20088;-74
2022/07/02 00:57:07;;;;;;;9.75;6.00;;;;;;;25.14;70.71;99855.88;5128692;27;20023;-74
2022/07/02 00:59:34;;;;;;;11.95;6.18;;;;;;;25.13;71.46;99867.78;5129319;27;20046;-74
2022/07/02 01:02:00;;;;;;;11.07;6.43;;;;;;;25.13;71.36;99868.59;5125870;27;20031;-74
2022/07/02 01:04:32;;;;;;;8.15;6.05;;;;;;;25.13;70.84;99867.78;5131401;27;20205;-74
2022/07/02 01:07:03;;;;;;;10.77;5.72;;;;;;;25.06;70.49;99859.03;5127178;27;20134;-74
2022/07/02 01:12:24;;;;;;;14.23;6.53;;;;;;;24.85;72.26;99863.34;5127194;27;20264;-74
2022/07/02 01:14:51;;;;;;;14.90;8.15;;;;;;;24.93;72.70;99862.06;5135705;27;20321;-74
2022/07/02 01:17:17;;;;;;;11.73;7.45;;;;;;;24.95;72.41;99857.22;5111768;27;20023;-75
2022/07/02 01:19:42;;;;;;;16.92;6.85;;;;;;;24.90;71.92;99866.13;5128659;27;20031;-74
2022/07/02 01:22:14;;;;;;;10.80;7.18;;;;;;;24.74;72.17;99862.41;5131445;27;20631;-74
2022/07/02 01:24:40;;;;;;;10.52;7.10;;;;;;;24.66;72.79;99862.03;5107331;27;20229;-74
2022/07/02 01:27:06;;;;;;;11.07;6.43;;;;;;;24.63;72.33;99857.94;5126535;27;20038;-74
2022/07/02 01:29:32;;;;;;;10.95;7.10;;;;;;;24.52;73.26;99856.97;5126719;27;20024;-74
2022/07/02 01:31:57;;;;;;;16.80;7.90;;;;;;;24.55;74.81;99861.06;5126225;27;20266;-74
2022/07/02 01:34:23;;;;;;;15.57;7.55;;;;;;;24.41;75.60;99867.91;5131248;27;20063;-74
2022/07/02 01:36:49;;;;;;;13.77;7.93;;;;;;;24.40;76.25;99864.38;5125695;27;20032;-74
2022/07/02 01:39:14;;;;;;;14.93;7.95;;;;;;;24.49;75.63;99857.47;5130513;27;20027;-74
2022/07/02 01:41:40;;;;;;;9.25;7.95;;;;;;;24.60;75.09;99863.84;5125446;27;20035;-74
2022/07/02 01:44:08;;;;;;;14.25;8.00;;;;;;;24.58;75.33;99866.00;5127325;27;20032;-74
2022/07/02 01:46:35;;;;;;;12.15;7.97;;;;;;;24.59;75.51;99869.50;5127606;27;20396;-74
2022/07/02 01:49:00;;;;;;;10.13;7.68;;;;;;;24.71;74.88;99873.72;5126703;27;20382;-74
2022/07/02 01:51:26;;;;;;;16.77;7.30;;;;;;;24.77;73.57;99869.19;5128687;27;20027;-74
2022/07/02 01:53:52;;;;;;;11.85;7.20;;;;;;;24.73;73.57;99874.31;5127105;27;20046;-74
2022/07/02 01:56:17;;;;;;;11.98;6.90;;;;;;;24.76;73.61;99871.09;5128490;27;20233;-74
2022/07/02 01:58:43;;;;;;;9.50;7.18;;;;;;;24.71;74.00;99870.22;5125923;27;20348;-74
2022/07/02 02:01:10;;;;;;;12.90;7.50;;;;;;;24.72;74.23;99872.66;5142132;27;20092;-74
2022/07/02 02:03:36;;;;;;;17.13;8.07;;;;;;;24.73;74.32;99871.59;5130089;27;20321;-74
2022/07/02 02:06:02;;;;;;;15.20;7.43;;;;;;;24.84;73.54;99873.34;5127736;27;20206;-74
2022/07/02 02:08:27;;;;;;;16.23;7.22;;;;;;;24.76;71.99;99864.84;5128256;27;20046;-74
2022/07/02 02:10:53;;;;;;;10.63;7.43;;;;;;;24.60;72.84;99874.69;5127458;27;20027;-74
2022/07/02 02:13:18;;;;;;;12.35;7.10;;;;;;;24.62;72.96;99867.13;5128972;27;20038;-74
2022/07/02 02:15:43;;;;;;;10.55;7.07;;;;;;;24.66;72.96;99862.84;5126699;27;20034;-74
2022/07/02 02:18:09;;;;;;;10.55;7.18;;;;;;;24.62;72.88;99869.81;5109592;27;20099;-74
2022/07/02 02:20:34;;;;;;;10.45;7.70;;;;;;;24.42;74.25;99869.56;5127157;27;20035;-74
2022/07/02 02:23:04;;;;;;;16.02;7.20;;;;;;;24.20;76.26;99864.88;5127065;27;20027;-74
2022/07/02 02:25:30;;;;;;;13.23;7.57;;;;;;;24.12;76.16;99861.78;5128014;27;20088;-74
2022/07/02 02:27:56;;;;;;;11.88;7.15;;;;;;;24.06;76.27;99862.78;5128207;27;20034;-74
2022/07/02 02:30:21;;;;;;;12.25;7.13;;;;;;;24.00;76.12;99855.66;5123996;27;20028;-74
2022/07/02 02:32:47;;;;;;;11.57;7.28;;;;;;;24.03;76.08;99869.50;5111977;28;20077;-74
2022/07/02 02:35:12;;;;;;;14.15;7.32;;;;;;;24.00;76.30;99864.59;5125092;27;20042;-74
2022/07/02 02:37:38;;;;;;;15.38;7.15;;;;;;;24.01;76.00;99857.28;5128944;27;20024;-74
2022/07/02 02:40:04;;;;;;;11.93;7.15;;;;;;;24.14;75.71;99862.34;5105915;27;20035;-74
2022/07/02 02:42:29;;;;;;;18.60;7.32;;;;;;;24.24;75.46;99876.03;5127336;27;20031;-74
2022/07/02 02:44:54;;;;;;;15.70;8.60;;;;;;;24.32;75.69;99882.94;5127116;27;20034;-74
2022/07/02 02:47:22;;;;;;;13.77;9.70;;;;;;;24.32;75.40;99880.25;5109063;27;20347;-74
2022/07/02 02:49:48;;;;;;;15.32;8.93;;;;;;;24.38;75.02;99880.06;5131785;27;20329;-74
2022/07/02 02:52:13;;;;;;;20.92;9.38;;;;;;;24.36;75.03;99874.06;5127719;27;20071;-74
2022/07/02 02:54:38;;;;;;;14.75;8.68;;;;;;;24.33;74.80;99873.75;5126466;27;20049;-74
2022/07/02 02:57:04;;;;;;;17.73;9.02;;;;;;;24.37;74.40;99873.00;5123356;27;20244;-74
2022/07/02 02:59:30;;;;;;;12.25;8.27;;;;;;;24.38;74.15;99874.66;5108432;27;20126;-74
2022/07/02 03:01:55;;;;;;;16.00;8.80;;;;;;;24.41;74.27;99876.84;5123471;27;20027;-74
2022/07/02 03:04:21;;;;;;;17.23;8.95;;;;;;;24.40;74.17;99887.94;5126987;27;20470;-74
2022/07/02 03:06:46;;;;;;;12.88;8.20;;;;;;;24.41;74.12;99893.09;5125762;27;20027;-74
2022/07/02 03:09:11;;;;;;;17.35;8.75;;;;;;;24.41;73.62;99879.56;5127244;27;20053;-75
2022/07/02 03:11:37;;;;;;;12.77;8.15;;;;;;;24.35;74.34;99895.97;5126709;27;20039;-74
2022/07/02 03:14:03;;;;;;;14.85;9.05;;;;;;;24.23;74.36;99887.94;5125462;27;20091;-74
2022/07/02 03:16:28;;;;;;;14.40;8.38;;;;;;;24.31;74.17;99901.06;5125758;27;20095;-74
2022/07/02 03:18:53;;;;;;;14.48;8.32;;;;;;;24.29;74.18;99903.19;5123749;27;20084;-74
2022/07/02 03:21:19;;;;;;;11.95;8.32;;;;;;;24.17;74.60;99900.56;5115259;28;20080;-74
2022/07/02 03:23:44;;;;;;;13.30;10.13;;;;;;;23.99;75.38;99902.69;5128056;27;20028;-74
2022/07/02 03:26:10;;;;;;;17.95;9.98;;;;;;;23.94;75.59;99910.72;5123522;28;20348;-74
2022/07/02 03:28:35;;;;;;;13.32;9.70;;;;;;;23.84;76.07;99905.94;5124059;28;20034;-74
2022/07/02 03:31:01;;;;;;;15.45;10.18;;;;;;;23.89;76.09;99909.53;5126087;28;20053;-74
2022/07/02 03:33:26;;;;;;;17.30;10.18;;;;;;;23.96;75.85;99895.91;5126670;27;20032;-74
2022/07/02 03:35:52;;;;;;;15.25;9.10;;;;;;;24.16;75.15;99912.44;5124903;28;20039;-74
2022/07/02 03:38:17;;;;;;;21.40;10.02;;;;;;;24.25;74.52;99912.03;5125916;27;20264;-74
2022/07/02 03:40:43;;;;;;;13.98;9.55;;;;;;;24.33;73.96;99917.06;5123603;28;20032;-74
2022/07/02 03:43:08;;;;;;;19.63;10.63;;;;;;;24.34;73.47;99905.97;5126209;28;20056;-74
2022/07/02 03:45:34;;;;;;;18.00;11.90;;;;;;;24.35;74.18;99920.34;5123107;28;20079;-74
2022/07/02 03:48:00;;;;;;;14.57;11.93;;;;;;;24.23;75.04;99928.50;5125433;28;20155;-74
2022/07/02 03:50:25;;;;;;;15.73;11.63;;;;;;;24.45;73.95;99929.41;5123058;28;20258;-74
2022/07/02 03:52:51;;;;;;;15.30;11.43;;;;;;;24.41;74.46;99928.28;5129142;28;20035;-74
2022/07/02 03:55:16;;;;;;;16.80;10.88;;;;;;;24.60;73.43;99928.81;5124199;28;20303;-74
2022/07/02 03:57:41;;;;;;;16.48;10.57;;;;;;;24.48;74.15;99933.53;5128443;28;20332;-74
2022/07/02 04:00:08;;;;;;;19.05;10.45;;;;;;;24.52;73.78;99924.66;5261056;22;20059;-73
2022/07/02 04:02:34;;;;;;;14.23;10.38;;;;;;;24.65;73.35;99934.31;5060990;28;20028;-73
2022/07/02 04:04:59;;;;;;;17.33;11.00;;;;;;;24.67;73.66;99934.88;5061528;28;20336;-73
2022/07/02 04:07:25;;;;;;;20.02;11.20;;;;;;;24.90;72.52;99936.53;5061259;28;20174;-74
2022/07/02 04:09:50;;;;;;;16.75;11.10;;;;;;;24.86;73.13;99937.28;5060113;28;20037;-73
2022/07/02 04:12:15;;;;;;;16.63;10.90;;;;;;;24.74;74.04;99932.81;5063426;28;20028;-74
2022/07/02 04:14:41;;;;;;;22.95;11.15;;;;;;;24.84;73.89;99935.66;5065283;28;20036;-73
2022/07/02 04:17:06;;;;;;;17.10;10.68;;;;;;;24.90;73.77;99938.44;5064993;28;20040;-73
2022/07/02 04:19:32;;;;;;;16.92;10.80;;;;;;;25.02;73.60;99936.47;5065237;28;20025;-74
2022/07/02 04:22:01;;;;;;;18.35;10.02;;;;;;;25.34;72.39;99939.28;5064939;28;20082;-73
2022/07/02 04:24:29;;;;;;;22.42;10.73;;;;;;;25.52;72.00;99932.72;5065101;28;20029;-73
2022/07/02 04:26:55;;;;;;;15.05;10.70;;;;;;;25.64;71.25;99942.31;5064561;28;20036;-73
2022/07/02 04:29:21;;;;;;;19.65;11.10;;;;;;;25.86;70.19;99927.91;5064605;28;20037;-73
2022/07/02 04:31:46;;;;;;;19.92;11.68;;;;;;;26.19;68.49;99933.09;5064693;28;20083;-73
2022/07/02 04:34:12;;;;;;;13.93;10.38;;;;;;;26.33;68.72;99936.22;5064698;28;20241;-73
2022/07/02 04:36:39;;;;;;;16.58;11.32;;;;;;;26.37;67.57;99932.72;5064713;28;20029;-73
2022/07/02 04:39:05;;;;;;;12.82;10.50;;;;;;;26.48;67.50;99930.06;5064587;28;20032;-73
2022/07/02 04:41:31;;;;;;;20.73;11.10;;;;;;;26.75;66.67;99933.50;5064588;28;20330;-74
2022/07/02 04:43:56;;;;;;;16.20;10.82;;;;;;;26.77;65.54;99938.66;5064791;28;20100;-73
2022/07/02 04:46:22;;;;;;;17.08;10.80;;;;;;;27.00;65.19;99944.50;5058158;28;20043;-73
2022/07/02 04:48:47;;;;;;;19.65;11.15;;;;;;;27.16;63.96;99944.59;5064586;28;20044;-74
2022/07/02 04:51:13;;;;;;;14.13;10.07;;;;;;;27.23;63.45;99945.19;5064428;28;20025;-74
2022/07/02 04:53:38;;;;;;;14.00;10.63;;;;;;;27.16;63.22;99945.44;5063439;28;20045;-73
2022/07/02 04:56:04;;;;;;;17.00;9.80;;;;;;;27.50;62.08;99947.72;5059781;28;20040;-73
2022/07/02 04:58:29;;;;;;;13.07;9.75;;;;;;;27.66;60.56;99949.41;5060832;28;20064;-73
2022/07/02 05:00:55;;;;;;;15.73;9.85;;;;;;;27.73;60.85;99949.13;5062238;28;20218;-73
2022/07/02 05:03:20;;;;;;;11.80;8.75;;;;;;;28.04;60.33;99955.44;5061778;28;20029;-73
2022/07/02 05:05:46;;;;;;;13.65;9.55;;;;;;;28.24;58.83;99958.22;5047386;28;20036;-73
2022/07/02 05:08:11;;;;;;;16.33;9.57;;;;;;;28.36;57.55;99953.28;5063160;28;20048;-73
2022/07/02 05:10:37;;;;;;;14.70;9.25;;;;;;;28.53;56.33;99958.44;5061618;28;20035;-74
2022/07/02 05:13:04;;;;;;;13.98;8.77;;;;;;;28.64;55.89;99951.06;5060831;28;20037;-73
2022/07/02 05:15:30;;;;;;;13.23;9.32;;;;;;;28.79;54.71;99945.59;5061879;28;20249;-73
2022/07/02 05:17:55;;;;;;;14.40;9.35;;;;;;;28.98;54.37;99945.81;5062829;28;20025;-74
2022/07/02 05:20:21;;;;;;;14.52;10.05;;;;;;;28.96;54.20;99950.72;5059964;28;20037;-73
2022/07/02 05:22:46;;;;;;;13.85;9.65;;;;;;;28.93;52.94;99928.38;5060056;28;20072;-74
2022/07/02 05:25:12;;;;;;;17.23;10.13;;;;;;;28.99;53.14;99945.53;5058858;28;20055;-73
2022/07/02 05:27:37;;;;;;;16.30;8.98;;;;;;;29.09;53.31;99942.78;5059308;28;20029;-73
2022/07/02 05:30:03;;;;;;;13.95;9.55;;;;;;;29.30;52.42;99938.06;5060030;28;20033;-74
2022/07/02 05:32:29;;;;;;;11.65;10.00;;;;;;;29.48;51.66;99936.63;5059248;28;20151;-73
2022/07/02 05:34:54;;;;;;;14.30;8.90;;;;;;;29.71;50.53;99944.13;5061039;28;20032;-73
2022/07/02 05:37:20;;;;;;;14.05;9.23;;;;;;;30.03;49.07;99940.91;5063813;28;20083;-73
2022/07/02 05:39:45;;;;;;;13.27;8.25;;;;;;;30.16;49.13;99936.72;5061590;28;20028;-74
2022/07/02 05:42:11;;;;;;;8.85;6.65;;;;;;;30.31;45.35;99941.25;5060129;28;20029;-73
2022/07/02 05:44:36;;;;;;;9.98;7.00;;;;;;;30.56;45.44;99930.06;5061113;28;20029;-73
2022/07/02 05:47:02;;;;;;;9.75;7.85;;;;;;;30.60;45.74;99947.53;5062372;28;20044;-73
2022/07/02 05:49:27;;;;;;;12.88;7.93;;;;;;;30.67;46.11;99928.88;5059670;28;20037;-73
2022/07/02 05:51:52;;;;;;;14.57;8.18;;;;;;;30.57;45.92;99937.16;5059739;28;20044;-73
2022/07/02 05:54:18;;;;;;;17.05;7.43;;;;;;;30.79;45.82;99936.66;5058874;28;20056;-73
2022/07/02 05:56:43;;;;;;;15.68;8.25;;;;;;;31.09;44.81;99943.69;5058709;28;20029;-73
2022/07/02 05:59:09;;;;;;;11.00;8.02;;;;;;;31.22;45.24;99945.78;5059065;28;20245;-74
2022/07/02 06:01:34;;;;;;;15.90;8.63;;;;;;;31.07;45.17;99934.97;5059478;28;20029;-73
2022/07/02 06:04:00;;;;;;;11.05;8.15;;;;;;;31.32;44.65;99944.81;5062022;28;20041;-74
2022/07/02 06:09:09;;;;;;;10.00;8.45;;;;;;;31.63;44.09;99946.00;5060558;28;20087;-73
2022/07/02 06:11:35;;;;;;;15.90;7.88;;;;;;;31.75;44.33;99951.06;5061680;28;20032;-73
2022/07/02 06:14:00;;;;;;;13.35;8.18;;;;;;;31.78;43.76;99949.66;5058305;28;20029;-73
2022/07/02 06:16:27;;;;;;;19.05;7.85;;;;;;;31.87;43.89;99951.44;5058912;28;20187;-72
2022/07/02 06:18:53;;;;;;;11.63;8.13;;;;;;;32.05;42.72;99947.03;5060697;28;20101;-73
2022/07/02 06:21:18;;;;;;;8.68;7.00;;;;;;;32.35;41.99;99937.53;5058977;28;20355;-73
2022/07/02 06:23:44;;;;;;;10.25;8.18;;;;;;;32.28;42.63;99948.06;5059346;28;20045;-73
2022/07/02 06:26:09;;;;;;;11.80;7.68;;;;;;;32.59;41.73;99945.59;5060255;28;20050;-73
2022/07/02 06:28:35;;;;;;;14.25;8.48;;;;;;;32.58;41.78;99946.72;5061386;28;20045;-73
2022/07/02 06:31:00;;;;;;;13.48;8.65;;;;;;;32.22;43.20;99955.50;5058705;28;20028;-73
2022/07/02 06:33:26;;;;;;;11.13;8.48;;;;;;;32.19;42.43;99945.16;5039868;28;20085;-73
2022/07/02 06:35:51;;;;;;;10.75;7.88;;;;;;;32.25;42.23;99951.38;5058201;28;20035;-73
2022/07/02 06:38:17;;;;;;;22.05;8.60;;;;;;;32.42;41.82;99948.91;5058564;28;20037;-73
2022/07/02 06:40:42;;;;;;;14.63;7.82;;;;;;;32.52;41.20;99954.22;5057782;28;20028;-73
2022/07/02 06:43:08;;;;;;;27.10;9.07;;;;;;;32.30;42.49;99946.66;5057694;28;20025;-73
2022/07/02 06:45:33;;;;;;;14.95;7.55;;;;;;;32.60;41.89;99947.22;5057652;28;20040;-73
2022/07/02 06:47:58;;;;;;;15.15;8.30;;;;;;;32.69;41.12;99940.72;5059028;28;20029;-73
2022/07/02 06:50:24;;;;;;;12.48;8.70;;;;;;;32.96;41.56;99945.44;5060926;28;20036;-73
2022/07/02 06:52:49;;;;;;;11.75;7.53;;;;;;;33.34;40.18;99942.50;5042200;28;20082;-73
2022/07/02 06:55:15;;;;;;;15.48;9.23;;;;;;;33.59;39.46;99941.91;5057918;28;20033;-73
2022/07/02 06:57:41;;;;;;;15.70;8.27;;;;;;;33.42;39.71;99940.94;5058555;28;20092;-73
2022/07/02 07:00:07;;;;;;;15.73;8.38;;;;;;;33.34;39.93;99947.16;5057068;28;20045;-73
2022/07/02 07:02:33;;;;;;;12.98;7.63;;;;;;;33.40;39.21;99938.50;5055266;28;20033;-73
2022/07/02 07:04:58;;;;;;;13.30;8.07;;;;;;;33.59;39.16;99939.16;5058450;28;20025;-72
2022/07/02 07:07:27;;;;;;;14.10;8.10;;;;;;;33.61;39.64;99933.38;5060114;28;20270;-73
2022/07/02 07:09:53;;;;;;;16.58;7.88;;;;;;;33.86;39.03;99942.97;5059190;28;20187;-73
2022/07/02 07:12:19;;;;;;;11.70;7.78;;;;;;;34.01;38.00;99945.34;5058932;28;20096;-73
2022/07/02 07:14:46;;;;;;;18.58;8.98;;;;;;;34.27;37.90;99942.75;5059776;28;20055;-73
2022/07/02 07:17:11;;;;;;;12.15;8.65;;;;;;;34.31;37.45;99949.25;5057942;28;20410;-73
2022/07/02 07:19:37;;;;;;;12.68;8.35;;;;;;;34.23;38.01;99944.50;5057589;28;20037;-73
2022/07/02 07:22:02;;;;;;;10.10;7.95;;;;;;;34.20;38.00;99945.13;5058072;28;20842;-73
2022/07/02 07:24:28;;;;;;;16.65;8.23;;;;;;;34.06;38.46;99942.47;5056956;28;20079;-73
2022/07/02 07:26:54;;;;;;;18.65;8.35;;;;;;;33.95;38.54;99943.84;5057925;28;20066;-73
2022/07/02 07:29:19;;;;;;;15.93;9.43;;;;;;;34.21;38.33;99949.50;5038862;28;20040;-73
2022/07/02 07:31:45;;;;;;;16.27;8.70;;;;;;;34.37;38.05;99950.78;5057309;28;20207;-73
2022/07/02 07:34:10;;;;;;;14.88;8.55;;;;;;;34.68;37.49;99938.97;5058137;28;20040;-73
2022/07/02 07:36:37;;;;;;;15.73;8.70;;;;;;;34.37;37.40;99936.25;5057419;28;20028;-73
2022/07/02 07:39:03;;;;;;;14.60;8.55;;;;;;;34.57;37.30;99938.44;5040383;28;20025;-73
2022/07/02 07:41:30;;;;;;;20.10;8.98;;;;;;;34.70;37.81;99942.22;5055546;28;20037;-73
2022/07/02 07:43:56;;;;;;;13.68;8.85;;;;;;;34.93;36.80;99930.03;5060398;28;20075;-73
2022/07/02 07:46:22;;;;;;;16.70;9.00;;;;;;;34.82;36.59;99939.69;5059576;28;20025;-73
2022/07/02 07:48:47;;;;;;;19.85;9.40;;;;;;;34.96;36.94;99929.38;5064526;28;20735;-73
2022/07/02 07:51:14;;;;;;;14.50;9.10;;;;;;;34.91;36.94;99945.22;5064881;28;20037;-73
2022/07/02 07:53:40;;;;;;;14.75;8.75;;;;;;;35.10;36.13;99945.78;5060857;28;20111;-73
2022/07/02 07:56:06;;;;;;;13.70;8.48;;;;;;;35.23;37.44;99942.06;5040019;28;20025;-73
2022/07/02 07:58:34;;;;;;;18.70;9.30;;;;;;;35.31;37.00;99952.28;5061635;28;20068;-73
2022/07/02 08:00:59;;;;;;;23.92;11.40;;;;;;;35.13;36.24;99954.19;5060298;28;20025;-73
2022/07/02 08:03:25;;;;;;;17.25;10.18;;;;;;;35.15;36.48;99953.88;5062012;28;20063;-73
2022/07/02 08:05:53;;;;;;;15.00;9.38;;;;;;;34.99;37.32;99953.50;5060614;28;20032;-73
2022/07/02 08:08:23;;;;;;;11.48;8.60;;;;;;;35.25;37.07;99942.56;5060839;28;20040;-73
2022/07/02 08:10:49;;;;;;;13.98;8.88;;;;;;;35.15;37.39;99953.88;5061469;28;20402;-74
2022/07/02 08:13:15;;;;;;;14.32;8.80;;;;;;;35.25;37.22;99955.50;5060627;28;20037;-73
2022/07/02 08:15:41;;;;;;;10.85;8.77;;;;;;;35.43;37.94;99949.78;5061565;28;20218;-73
2022/07/02 08:18:08;;;;;;;9.93;8.65;;;;;;;35.41;37.64;99959.50;5059417;28;20029;-73
2022/07/02 08:20:33;;;;;;;12.15;9.27;;;;;;;35.59;35.99;99958.38;5042350;28;20040;-73
2022/07/02 08:22:59;;;;;;;18.30;8.80;;;;;;;35.61;35.83;99952.53;5061137;28;20033;-73
2022/07/02 08:25:25;;;;;;;14.05;8.60;;;;;;;35.46;35.71;99956.56;5060038;28;20234;-73
2022/07/02 08:27:50;;;;;;;15.45;9.25;;;;;;;35.58;35.94;99950.44;5060468;28;20029;-73
2022/07/02 08:30:16;;;;;;;13.48;8.43;;;;;;;35.45;37.13;99958.53;5060958;28;20048;-73
2022/07/02 08:32:42;;;;;;;20.65;8.75;;;;;;;35.53;36.25;99953.34;5059011;28;20305;-73
2022/07/02 08:35:08;;;;;;;16.55;8.45;;;;;;;35.63;35.74;99956.59;5061562;28;20047;-73
2022/07/02 08:37:33;;;;;;;10.55;7.78;;;;;;;35.69;34.63;99958.03;5060287;28;21672;-73
2022/07/02 08:39:59;;;;;;;12.00;8.13;;;;;;;35.79;34.33;99954.97;5061093;28;20040;-73
2022/07/02 08:42:27;;;;;;;10.85;8.20;;;;;;;35.57;34.60;99949.63;5060268;28;20649;-73
2022/07/02 08:44:58;;;;;;;15.30;7.20;;;;;;;35.37;33.70;99961.22;5060487;28;20037;-73
2022/07/02 08:47:25;;;;;;;12.13;8.13;;;;;;;35.22;35.69;99957.78;5060913;28;20332;-73
2022/07/02 08:49:52;;;;;;;14.02;7.05;;;;;;;35.42;33.18;99953.66;5059692;28;20342;-73
2022/07/02 08:52:20;;;;;;;10.93;6.88;;;;;;;35.67;33.37;99957.56;5060002;28;20103;-73
2022/07/02 08:54:46;;;;;;;10.13;7.25;;;;;;;35.75;32.03;99958.69;5060944;28;20036;-74
2022/07/02 08:57:14;;;;;;;9.07;7.82;;;;;;;35.65;34.04;99956.25;5060681;28;20055;-73
2022/07/02 08:59:41;;;;;;;10.27;7.40;;;;;;;36.03;33.70;99951.72;5058427;28;20957;-73
2022/07/02 09:02:07;;;;;;;11.10;6.65;;;;;;;35.90;32.30;99957.41;5059239;28;20025;-73
2022/07/02 09:04:34;;;;;;;10.80;6.68;;;;;;;36.24;30.77;99953.81;5060723;28;20032;-73
2022/07/02 09:07:03;;;;;;;11.68;6.13;;;;;;;36.41;31.04;99953.78;5044849;28;20027;-73
2022/07/02 09:09:29;;;;;;;16.23;6.25;;;;;;;36.17;31.02;99953.50;5062822;28;20041;-73
2022/07/02 09:11:56;;;;;;;10.90;6.10;;;;;;;36.17;32.37;99946.03;5062231;28;20025;-73
2022/07/02 09:14:22;;;;;;;12.45;7.28;;;;;;;36.23;32.44;99944.72;5061493;28;20310;-73
2022/07/02 09:16:50;;;;;;;12.98;7.68;;;;;;;36.30;31.36;99947.00;5063127;28;20250;-73
2022/07/02 09:19:18;;;;;;;17.67;7.28;;;;;;;35.72;32.65;99945.56;5062927;28;20358;-73
2022/07/02 09:21:49;;;;;;;7.40;6.32;;;;;;;35.87;32.98;99945.09;5059761;28;20045;-73
2022/07/02 09:24:26;;;;;;;11.35;6.57;;;;;;;36.07;31.50;99944.44;5058004;28;20021;-73
2022/07/02 09:27:04;;;;;;;12.73;6.90;;;;;;;36.23;31.62;99936.44;5058728;28;20096;-73
2022/07/02 09:29:40;;;;;;;9.95;6.82;;;;;;;35.57;32.08;99916.56;5061319;28;20417;-73
2022/07/02 09:32:06;;;;;;;11.57;6.88;;;;;;;35.45;31.44;99938.44;5058978;28;20036;-73
2022/07/02 09:34:32;;;;;;;21.58;6.75;;;;;;;35.07;34.24;99941.72;5060445;28;20036;-73
2022/07/02 09:36:57;;;;;;;12.93;6.72;;;;;;;34.97;33.89;99939.25;5059199;28;20028;-73
2022/07/02 09:39:30;;;;;;;7.78;6.95;;;;;;;34.73;34.97;99941.56;5059275;28;20094;-73
2022/07/02 09:41:59;;;;;;;11.52;6.65;;;;;;;34.49;34.38;99937.28;5059473;28;20234;-73
2022/07/02 09:44:26;;;;;;;9.25;7.55;;;;;;;34.41;35.36;99935.28;5060829;28;20040;-73
2022/07/02 09:46:52;;;;;;;12.20;6.70;;;;;;;34.28;34.32;99933.38;5062057;28;20314;-73
2022/07/02 09:49:17;;;;;;;12.75;7.70;;;;;;;34.24;36.45;99941.44;5060493;28;20075;-73
2022/07/02 09:51:50;;;;;;;10.68;7.55;;;;;;;33.85;38.07;99933.91;5059306;28;20086;-73
2022/07/02 09:54:23;;;;;;;6.88;5.43;;;;;;;33.52;35.87;99944.28;5061863;28;20032;-73
2022/07/02 09:56:58;;;;;;;7.63;5.40;;;;;;;33.31;35.38;99941.19;5060489;28;20024;-73
2022/07/02 09:59:24;;;;;;;6.70;5.28;;;;;;;33.46;34.84;99940.03;5058641;28;20029;-73
2022/07/02 10:01:50;;;;;;;9.57;5.50;;;;;;;33.27;35.92;99940.09;5059640;28;20322;-73
2022/07/02 10:04:27;;;;;;;7.43;5.72;;;;;;;33.06;36.38;99932.63;5057979;28;20271;-73
2022/07/02 10:06:53;;;;;;;9.38;5.45;;;;;;;33.20;34.30;99934.22;5059280;28;20035;-73
2022/07/02 10:09:21;;;;;;;7.32;6.07;;;;;;;32.96;37.06;99937.19;5058168;28;20037;-73
2022/07/02 10:11:47;;;;;;;7.43;5.18;;;;;;;32.99;34.95;99933.03;5059421;28;20245;-73
2022/07/02 10:14:16;;;;;;;12.00;5.53;;;;;;;32.95;35.80;99929.28;5058299;28;20037;-73
2022/07/02 10:16:42;;;;;;;9.48;5.88;;;;;;;32.76;38.16;99934.84;5057296;28;20298;-73
2022/07/02 10:19:10;;;;;;;13.38;5.90;;;;;;;32.97;38.16;99927.84;5059416;28;20059;-73
2022/07/02 10:21:38;;;;;;;8.07;5.47;;;;;;;32.81;37.28;99918.31;5058112;28;20080;-73
2022/07/02 10:24:06;;;;;;;8.25;5.20;;;;;;;32.91;37.29;99923.59;5058403;28;20070;-73
2022/07/02 10:26:32;;;;;;;12.23;6.03;;;;;;;32.84;36.29;99925.13;5058935;28;20292;-73
2022/07/02 10:29:02;;;;;;;10.43;5.57;;;;;;;32.85;36.92;99899.31;5058032;28;20041;-73
2022/07/02 10:31:31;;;;;;;9.82;5.47;;;;;;;32.92;38.21;99925.22;5055973;28;20108;-73
2022/07/02 10:34:36;;;;;;;6.00;5.40;;;;;;;33.01;36.37;99928.88;5060133;28;20052;-73
2022/07/02 10:37:03;;;;;;;7.88;5.50;;;;;;;33.04;37.44;99910.97;5060170;28;20265;-73
2022/07/02 10:39:42;;;;;;;9.63;5.32;;;;;;;33.07;34.72;99923.28;5058269;28;20075;-73
2022/07/02 10:42:07;;;;;;;9.63;5.28;;;;;;;32.93;37.36;99913.13;5052558;28;20385;-73
2022/07/02 10:44:41;;;;;;;7.43;5.13;;;;;;;32.88;35.35;99921.47;5058240;28;20117;-73
2022/07/02 10:47:24;;;;;;;6.93;4.38;;;;;;;33.01;34.82;99922.56;5058551;28;20067;-73
2022/07/02 10:50:00;;;;;;;8.38;5.13;;;;;;;32.94;35.44;99914.75;5058632;28;20051;-73
2022/07/02 10:52:48;;;;;;;7.75;5.13;;;;;;;33.08;34.52;99901.00;5059631;28;20107;-73
2022/07/02 10:55:32;;;;;;;9.35;4.78;;;;;;;32.82;37.05;99913.63;5059725;28;20049;-73
2022/07/02 10:57:58;;;;;;;6.15;4.75;;;;;;;32.85;36.60;99907.53;5061335;28;20036;-73
2022/07/02 11:00:38;;;;;;;7.43;5.15;;;;;;;32.86;36.99;99895.47;5057620;28;20382;-73
2022/07/02 11:03:14;;;;;;;6.85;5.28;;;;;;;32.83;35.45;99909.78;5053305;28;20024;-72
2022/07/02 11:06:02;;;;;;;12.98;5.20;;;;;;;33.21;35.99;99896.63;5058227;28;20045;-73
2022/07/02 11:08:57;;;;;;;5.95;5.40;;;;;;;33.49;37.48;99900.16;5036503;28;20094;-73
2022/07/02 11:11:35;;;;;;;8.18;5.70;;;;;;;33.24;38.37;99910.53;5055914;28;20043;-73
2022/07/02 11:14:16;;;;;;;8.93;5.47;;;;;;;33.00;37.30;99901.75;5058047;28;20047;-73
2022/07/02 11:16:51;;;;;;;11.43;5.72;;;;;;;33.19;40.51;99912.56;5060307;28;20338;-73
2022/07/02 11:19:19;;;;;;;6.43;5.57;;;;;;;32.89;36.99;99901.13;5060767;28;20033;-73
2022/07/02 11:21:49;;;;;;;6.68;5.10;;;;;;;33.13;34.74;99897.34;5057408;28;20032;-73
2022/07/02 11:24:16;;;;;;;10.95;5.70;;;;;;;33.19;37.27;99894.19;5057127;28;20033;-73
2022/07/02 11:26:42;;;;;;;6.75;5.45;;;;;;;33.24;35.76;99896.00;5040067;28;20021;-73
2022/07/02 11:29:09;;;;;;;8.13;5.70;;;;;;;33.34;36.23;99895.84;5042311;28;20100;-73
2022/07/02 11:31:36;;;;;;;8.60;5.40;;;;;;;33.09;36.64;99890.84;5039192;28;20261;-73